Latest Weather Observations for Norah Head

IDN60801

Issued at 5:05 pm EDT Friday 31 October 2014 (issued every 30 minutes, with the page automatically refreshed every 10 minutes)

About weather observations | Map of weather stations | Latest weather observations for NSW | Other Formats
Station Details ID: 061366 Name: NORAH HEAD AWS Lat: -33.28 Lon: 151.58 Height: 18.8 m
Data from the previous 72 hours. | See also: Recent months at Norah Head
Date/Time
EDT
Temp
°C
App
Temp
°C
Dew
Point
Rel
Hum
%
Delta-T
°C
Wind Press
QNH
hPa
Press
MSL
hPa
Rain
since 9 am
mm
Dir
 
Spd
km/h
Gust
km/h
Spd
kts
Gust
kts
31/05:00pm 21.3 18.4 18.9 86 1.5 NNE 32 37 17 20 1006.9 1006.9 0.0
31/04:30pm 21.4 18.6 19.0 86 1.5 NNE 32 35 17 19 1007.0 1007.0 0.0
31/04:00pm 21.9 20.2 18.9 83 1.9 NNE 26 32 14 17 1007.6 1007.6 0.0
31/03:30pm 22.1 20.7 18.9 82 2.0 NE 24 28 13 15 1008.0 1008.0 0.0
31/03:00pm 23.5 22.1 19.6 79 2.5 NE 26 32 14 17 1008.4 1008.4 0.0
31/02:30pm 23.1 22.4 18.6 76 2.8 NE 20 24 11 13 1009.2 1009.2 0.0
31/02:00pm 25.4 26.2 19.1 68 4.0 NE 13 17 7 9 1009.9 1009.8 0.0
31/01:30pm 25.6 26.6 19.5 69 3.9 NE 13 15 7 8 1010.5 1010.4 0.0
31/01:00pm 24.5 25.0 18.4 69 3.9 ENE 13 15 7 8 1011.2 1011.1 0.0
31/12:30pm 24.6 25.9 19.4 73 3.3 ENE 11 13 6 7 1011.8 1011.7 0.0
31/12:00pm 23.3 24.7 18.6 75 3.0 E 9 11 5 6 1012.3 1012.2 0.0
31/11:30am 23.2 24.5 18.5 75 3.0 ESE 9 11 5 6 1012.8 1012.7 0.0
31/11:00am 23.1 24.8 18.6 76 2.8 SE 7 9 4 5 1013.2 1013.1 0.0
31/10:30am 22.5 24.0 18.1 76 2.7 SSE 7 7 4 4 1013.4 1013.3 0.0
31/10:00am 21.7 23.1 17.3 76 2.7 SSE 6 6 3 3 1013.4 1013.3 0.0
31/09:30am 21.1 23.2 17.1 78 2.4 SE 2 6 1 3 1013.3 1013.2 0.0
31/09:00am 20.8 22.7 16.8 78 2.4 SE 2 4 1 2 1013.3 1013.2 0.0
31/08:30am 20.7 22.8 17.1 80 2.2 SE 2 4 1 2 1013.1 1013.0 0.0
31/08:00am 20.4 22.8 17.0 81 2.1 CALM 0 0 0 0 1013.1 1013.0 0.0
31/07:30am 20.2 22.8 17.4 84 1.7 CALM 0 4 0 2 1013.2 1013.1 0.0
31/07:00am 18.9 20.2 16.1 84 1.7 SW 4 7 2 4 1013.2 1013.1 0.0
31/06:30am 18.5 19.1 15.7 84 1.7 SSW 7 9 4 5 1013.1 1013.0 0.0
31/06:00am 16.5 16.4 13.4 82 1.7 SW 6 9 3 5 1012.9 1012.8 0.0
31/05:30am 16.6 17.6 13.3 81 1.8 CALM 0 0 0 0 1012.7 1012.6 0.0
31/05:00am 17.3 18.7 14.4 83 1.7 CALM 0 0 0 0 1012.4 1012.3 0.0
31/04:30am 17.1 17.7 14.2 83 1.7 W 4 6 2 3 1012.2 1012.1 0.0
31/04:00am 17.2 19.0 15.5 90 1.0 CALM 0 6 0 3 1012.2 1012.1 0.0
31/03:30am 18.0 20.2 16.5 91 0.9 CALM 0 0 0 0 1012.2 1012.1 0.0
31/03:00am 18.2 20.6 16.9 92 0.8 CALM 0 0 0 0 1012.3 1012.2 0.0
31/02:30am 18.4 20.8 16.9 91 0.9 CALM 0 0 0 0 1012.4 1012.3 0.0
31/02:00am 18.3 20.5 16.6 90 1.0 CALM 0 0 0 0 1012.6 1012.5 0.0
31/01:30am 18.5 20.8 16.7 89 1.1 CALM 0 0 0 0 1013.0 1012.9 0.0
31/01:00am 18.5 20.7 16.5 88 1.2 CALM 0 0 0 0 1013.2 1013.1 0.0
31/12:30am 18.6 20.8 16.6 88 1.2 CALM 0 0 0 0 1013.4 1013.3 0.0
31/12:00am 18.4 20.4 16.0 86 1.4 N 0 0 0 0 1013.5 1013.4 0.0
 
Date/Time
EDT
Temp
°C
App
Temp
°C
Dew
Point
Rel
Hum
%
Delta-T
°C
Wind Press
QNH
hPa
Press
MSL
hPa
Rain
since 9 am
mm
Dir
 
Spd
km/h
Gust
km/h
Spd
kts
Gust
kts
30/11:30pm 18.7 20.7 16.1 85 1.5 CALM 0 0 0 0 1013.7 1013.6 0.0
30/11:00pm 18.6 20.7 16.2 86 1.4 CALM 0 0 0 0 1013.7 1013.6 0.0
30/10:30pm 18.5 20.5 16.1 86 1.4 CALM 0 0 0 0 1013.6 1013.5 0.0
30/10:00pm 18.5 19.4 16.1 86 1.4 N 6 6 3 3 1013.5 1013.4 0.0
30/09:30pm 19.0 19.7 16.2 84 1.7 N 7 7 4 4 1013.5 1013.4 0.0
30/09:00pm 19.5 19.1 16.2 81 2.0 N 13 15 7 8 1013.3 1013.2 0.0
30/08:30pm 19.8 19.7 15.9 78 2.3 N 11 13 6 7 1013.1 1013.0 0.0
30/08:00pm 20.1 19.4 16.5 80 2.2 N 15 19 8 10 1012.9 1012.8 0.0
30/07:30pm 20.1 19.3 17.1 83 1.8 N 17 20 9 11 1012.6 1012.5 0.0
30/07:00pm 20.3 18.0 17.5 84 1.7 N 26 30 14 16 1012.1 1012.0 0.0
30/06:30pm 20.4 18.3 17.2 82 2.0 N 24 28 13 15 1011.8 1011.7 0.0
30/06:00pm 20.4 18.3 17.2 82 2.0 N 24 28 13 15 1011.6 1011.5 0.0
30/05:30pm 20.6 19.1 17.6 83 1.8 N 22 26 12 14 1011.5 1011.4 0.0
30/05:00pm 20.8 20.2 17.6 82 2.0 N 17 20 9 11 1011.6 1011.5 0.0
30/04:30pm 21.1 21.6 17.5 80 2.2 NNE 11 15 6 8 1011.8 1011.7 0.0
30/04:00pm 23.6 24.2 18.5 73 3.2 NE 13 17 7 9 1011.8 1011.7 0.0
30/03:30pm 22.5 22.1 17.2 72 3.3 NE 15 19 8 10 1012.1 1012.0 0.0
30/03:00pm 22.6 22.0 17.5 73 3.2 NE 17 19 9 10 1012.4 1012.3 0.0
30/02:30pm 24.1 23.8 18.3 70 3.7 ENE 17 19 9 10 1012.7 1012.6 0.0
30/02:00pm 22.9 23.3 18.2 75 2.9 ENE 13 17 7 9 1013.0 1012.9 0.0
30/01:30pm 21.2 20.8 16.2 73 3.0 ESE 13 15 7 8 1013.6 1013.5 0.0
30/01:00pm 21.1 20.3 16.1 73 3.0 ESE 15 19 8 10 1013.8 1013.7 0.0
30/12:30pm 21.5 21.0 16.0 71 3.3 ESE 13 15 7 8 1014.2 1014.1 0.0
30/12:00pm 21.7 21.4 16.4 72 3.2 ESE 13 13 7 7 1014.7 1014.6 0.0
30/11:30am 21.6 21.9 15.9 70 3.4 E 9 11 5 6 1014.8 1014.7 0.0
30/11:00am 21.9 22.6 16.0 69 3.6 E 7 9 4 5 1015.2 1015.1 0.0
30/10:30am 23.6 24.2 17.8 70 3.6 ENE 11 11 6 6 1015.3 1015.2 0.0
30/10:00am 21.7 22.3 15.3 67 3.8 E 6 7 3 4 1015.5 1015.4 0.0
30/09:30am 21.6 22.7 16.6 73 3.0 N 6 6 3 3 1015.7 1015.6 0.0
30/09:00am 21.2 21.7 15.5 70 3.4 NNW 7 11 4 6 1015.7 1015.6 0.0
30/08:30am 20.1 20.8 15.5 75 2.7 NNW 6 9 3 5 1015.5 1015.4 0.0
30/08:00am 18.1 18.8 14.6 80 2.0 WNW 4 11 2 6 1015.5 1015.4 0.0
30/07:30am 17.1 18.7 14.9 87 1.3 CALM 0 4 0 2 1015.4 1015.3 0.0
30/07:00am 16.2 17.0 14.9 92 0.7 W 4 9 2 5 1015.3 1015.2 0.0
30/06:30am 15.6 16.2 14.3 92 0.7 W 4 9 2 5 1015.1 1015.0 0.0
30/06:00am 15.6 17.0 14.3 92 0.7 CALM 0 0 0 0 1014.6 1014.5 0.0
30/05:30am 15.6 16.9 14.1 91 0.8 CALM 0 4 0 2 1014.7 1014.6 0.0
30/05:00am 16.2 17.0 14.9 92 0.7 W 4 7 2 4 1014.8 1014.7 0.0
30/04:30am 16.2 16.1 14.9 92 0.7 W 9 13 5 7 1014.8 1014.7 0.0
30/04:00am 16.8 17.3 15.0 89 1.0 W 6 9 3 5 1014.9 1014.8 0.0
30/03:30am 17.2 17.2 15.2 88 1.2 NNW 9 11 5 6 1014.8 1014.7 0.0
30/03:00am 17.9 16.9 15.5 86 1.4 N 15 17 8 9 1014.9 1014.8 0.0
30/02:30am 18.5 16.0 16.1 86 1.4 NNE 24 28 13 15 1014.9 1014.8 0.0
30/02:00am 18.5 15.9 15.9 85 1.5 NNE 24 28 13 15 1015.1 1015.0 0.0
30/01:30am 18.6 16.9 16.2 86 1.4 NNE 20 24 11 13 1015.6 1015.5 0.0
30/01:00am 18.6 15.7 16.0 85 1.5 NNE 26 30 14 16 1015.9 1015.8 0.0
30/12:30am 18.6 16.0 16.0 85 1.5 NNE 24 30 13 16 1016.3 1016.2 0.0
30/12:00am 18.6 14.8 15.7 83 1.7 NNE 30 33 16 18 1016.5 1016.4 0.0
 
Date/Time
EDT
Temp
°C
App
Temp
°C
Dew
Point
Rel
Hum
%
Delta-T
°C
Wind Press
QNH
hPa
Press
MSL
hPa
Rain
since 9 am
mm
Dir
 
Spd
km/h
Gust
km/h
Spd
kts
Gust
kts
29/11:30pm 18.6 14.8 15.7 83 1.7 NNE 30 35 16 19 1016.6 1016.5 0.0
29/11:00pm 18.6 14.3 15.5 82 1.8 NNE 32 35 17 19 1016.7 1016.6 0.0
29/10:30pm 18.6 14.1 15.3 81 1.9 NNE 33 39 18 21 1016.7 1016.6 0.0
29/10:00pm 18.6 14.3 15.3 81 1.9 NNE 32 35 17 19 1016.9 1016.8 0.0
29/09:30pm 18.6 14.6 15.3 81 1.9 NNE 30 35 16 19 1017.0 1016.9 0.0
29/09:00pm 18.8 15.4 15.9 83 1.7 NNE 28 35 15 19 1016.8 1016.7 0.0
29/08:30pm 18.7 15.2 15.6 82 1.8 NNE 28 32 15 17 1016.3 1016.2 0.0
29/08:00pm 18.8 14.8 15.3 80 2.1 NE 30 37 16 20 1016.1 1016.0 0.0
29/07:30pm 18.9 14.9 15.2 79 2.2 NE 30 35 16 19 1015.9 1015.8 0.0
29/07:00pm 19.0 15.4 15.3 79 2.2 NE 28 33 15 18 1015.6 1015.5 0.0
29/06:30pm 19.3 15.7 15.2 77 2.4 NE 28 33 15 18 1015.5 1015.4 0.0
29/06:00pm 19.9 16.0 15.5 76 2.6 NE 30 33 16 18 1015.3 1015.2 0.0
29/05:30pm 20.6 17.4 15.2 71 3.2 ENE 26 32 14 17 1015.1 1015.0 0.0
29/05:00pm 21.3 18.1 15.4 69 3.5 ENE 26 30 14 16 1015.1 1015.0 0.0
29/04:30pm 21.9 19.5 15.5 67 3.8 ENE 22 28 12 15 1015.3 1015.2 0.0
29/04:00pm 22.1 19.8 15.7 67 3.8 ENE 22 26 12 14 1015.4 1015.3 0.0
29/03:30pm 22.4 20.1 15.7 66 4.0 ENE 22 26 12 14 1015.5 1015.4 0.0
29/03:00pm 22.2 20.0 16.0 68 3.7 ENE 22 28 12 15 1015.9 1015.8 0.0
29/02:30pm 21.8 20.0 15.9 69 3.5 ENE 20 26 11 14 1016.1 1016.0 0.0
29/02:00pm 21.8 19.2 14.9 65 4.1 ESE 22 26 12 14 1016.4 1016.3 0.0
29/01:30pm 22.2 20.3 15.8 67 3.8 ESE 20 24 11 13 1016.7 1016.6 0.0
29/01:00pm 22.3 20.3 14.9 63 4.4 SE 19 22 10 12 1016.7 1016.6 0.0
29/12:30pm 22.3 19.9 13.9 59 4.9 SE 19 20 10 11 1016.9 1016.8 0.0
29/12:00pm 23.2 20.8 14.5 58 5.1 SSE 20 22 11 12 1017.2 1017.1 0.0
29/11:30am 23.1 20.8 14.1 57 5.3 SSE 19 20 10 11 1017.5 1017.4 0.0
29/11:00am 22.5 19.8 13.0 55 5.4 S 19 22 10 12 1017.7 1017.6 0.0
29/10:30am 22.2 19.9 11.9 52 5.8 S 15 20 8 11 1017.7 1017.6 0.0
29/10:00am 22.2 20.7 11.9 52 5.8 S 11 15 6 8 1017.7 1017.6 0.0
29/09:30am 21.6 21.0 12.2 55 5.3 S 7 9 4 5 1017.5 1017.4 0.0
29/09:00am 20.9 20.0 10.7 52 5.6 SSW 6 9 3 5 1017.3 1017.2 0.0
29/08:30am 20.2 18.5 8.5 47 6.1 SSW 7 11 4 6 1017.1 1017.0 0.0
29/08:00am 19.9 18.4 8.6 48 5.9 SSW 6 9 3 5 1016.9 1016.8 0.0
29/07:30am 18.8 17.4 8.7 52 5.3 WSW 6 9 3 5 1016.5 1016.4 0.0
29/07:00am 17.5 15.4 8.1 54 4.8 W 9 15 5 8 1016.2 1016.1 0.0
29/06:30am 16.6 15.1 9.3 62 3.8 WNW 7 9 4 5 1016.1 1016.0 0.0
29/06:00am 16.6 14.6 8.6 59 4.1 W 9 13 5 7 1015.6 1015.5 0.0
29/05:30am 16.6 14.6 8.8 60 4.0 W 9 13 5 7 1015.2 1015.1 0.0
29/05:00am 17.0 14.8 7.9 55 4.6 W 9 11 5 6 1014.9 1014.8 0.0
29/04:30am 17.6 15.2 7.1 50 5.3 W 9 13 5 7 1014.5 1014.4 0.0
29/04:00am 18.3 16.4 7.7 50 5.4 W 7 11 4 6 1014.3 1014.2 0.0
29/03:30am 18.3 16.5 8.0 51 5.3 W 7 9 4 5 1014.1 1014.0 0.0
29/03:00am 18.6 16.9 8.3 51 5.3 W 7 9 4 5 1014.0 1013.9 0.0
29/02:30am 19.1 17.0 6.6 44 6.3 SW 7 11 4 6 1013.8 1013.7 0.0
29/02:00am 19.4 16.8 6.2 42 6.6 W 9 13 5 7 1013.7 1013.6 0.0
29/01:30am 19.6 16.7 6.4 42 6.6 W 11 13 6 7 1013.5 1013.4 0.0
29/01:00am 19.8 17.1 5.8 40 6.9 W 9 13 5 7 1013.5 1013.4 0.0
29/12:30am 20.3 17.2 5.5 38 7.3 W 11 15 6 8 1013.6 1013.5 0.0
29/12:00am 20.2 18.3 6.9 42 6.7 W 6 11 3 6 1013.6 1013.5 0.0
 
Date/Time
EDT
Temp
°C
App
Temp
°C
Dew
Point
Rel
Hum
%
Delta-T
°C
Wind Press
QNH
hPa
Press
MSL
hPa
Rain
since 9 am
mm
Dir
 
Spd
km/h
Gust
km/h
Spd
kts
Gust
kts
28/11:30pm 20.2 18.3 7.6 44 6.5 W 7 9 4 5 1013.5 1013.4 0.0
28/11:00pm 21.0 18.6 6.9 40 7.2 W 9 13 5 7 1013.1 1013.0 0.0
28/10:30pm 21.4 18.6 5.3 35 8.0 W 9 17 5 9 1012.9 1012.8 0.0
28/10:00pm 21.4 18.2 5.3 35 8.0 WSW 11 15 6 8 1012.6 1012.5 0.0
28/09:30pm 21.6 18.6 5.9 36 7.9 WSW 11 17 6 9 1012.3 1012.2 0.0
28/09:00pm 21.9 19.8 8.4 42 7.1 WSW 9 15 5 8 1012.0 1011.9 0.0
28/08:30pm 21.3 20.1 9.5 47 6.3 WSW 6 9 3 5 1011.4 1011.3 0.0
28/08:00pm 19.0 19.7 17.1 89 1.2 ENE 9 15 5 8 1010.8 1010.7 0.0
28/07:30pm 18.9 19.9 16.9 88 1.2 NNW 7 9 4 5 1010.1 1010.0 0.0
28/07:00pm 19.4 20.7 17.0 86 1.5 N 6 9 3 5 1009.6 1009.5 0.0
28/06:30pm 20.0 20.7 17.0 83 1.8 NNE 9 15 5 8 1009.2 1009.2 0.0
28/06:00pm 20.5 20.1 17.1 81 2.1 NE 15 19 8 10 1008.8 1008.8 0.0
28/05:30pm 20.8 20.1 16.4 76 2.7 NE 15 19 8 10 1008.6 1008.6 0.0

Other Formats:

Comma delimited format used in spreadsheet applications
http://www.bom.gov.au/fwo/IDN60801/IDN60801.95770.axf

JavaScript Object Notation format (JSON) in row-major order
http://www.bom.gov.au/fwo/IDN60801/IDN60801.95770.json